»·PEaware :: N46SJN KAPV-KBFL

N46SJN :: KAPV-KBFL

FLIGHT INFORMATION

Flight Status: Arrived
Operator: Privately registered:
United States
More flights under this callsign
Pilot: Shannon N. (33079)
Aircraft: CESSNA 208 CARAVAN
(C208)
More flights by this aircraft type
Origin: KAPV Apple Valley
United States
Destination: KBFL Meadows
United States
More flights between these airports :: More routes between these airports
Route: PMD
File this flight plan on PilotEdge
Remarks:
Altitude:
(Current/Filed)
10,500ft
Speed:
(Current/Filed)
130kts
Departed: 25-Nov-21 03:11 PM
Arrived: 25-Nov-21 03:52 PM
Distance/Time
Traveled:
105nm/0:41
Distance/Time
To Go:
Arrived

Flight Plot

Page will automatically refresh every two minutes.


Map Options




Map Legend


Flown Route
Filed Route
Departure Airport
Arrival Airport
Navaid (VOR, NDB)
Fix

Horizontal Profiles

Position Reports

Time Latitude Longitude Heading Altitude Ground
Speed
25-Nov-21 15:09 34.577107 -117.414503 296 10512ft 171kts
25-Nov-21 15:10 34.599807 -117.465672 296 10510ft 172kts
25-Nov-21 15:11 34.598175 -117.520315 263 10503ft 170kts
25-Nov-21 15:12 34.601339 -117.577598 274 10499ft 171kts
25-Nov-21 15:13 34.605007 -117.635168 273 10507ft 171kts
25-Nov-21 15:14 34.608642 -117.692632 273 10502ft 165kts
25-Nov-21 15:15 34.612027 -117.746592 272 10497ft 158kts
25-Nov-21 15:16 34.615328 -117.799734 272 10504ft 157kts
25-Nov-21 15:17 34.618615 -117.852865 272 10508ft 158kts
25-Nov-21 15:18 34.621858 -117.905845 272 10494ft 157kts
25-Nov-21 15:19 34.625095 -117.958939 272 10511ft 157kts
25-Nov-21 15:20 34.628288 -118.012029 272 10510ft 157kts
25-Nov-21 15:21 34.629459 -118.033888 275 10511ft 157kts
25-Nov-21 15:22 34.630991 -118.053693 273 10512ft 157kts
25-Nov-21 15:23 34.656861 -118.095155 311 10510ft 160kts
25-Nov-21 15:24 34.688439 -118.133749 311 10513ft 160kts
25-Nov-21 15:25 34.720045 -118.172416 311 10506ft 161kts
25-Nov-21 15:26 34.751494 -118.210955 311 10510ft 160kts
25-Nov-21 15:27 34.783041 -118.249659 311 10506ft 161kts
25-Nov-21 15:28 34.814552 -118.288361 311 10508ft 161kts
25-Nov-21 15:29 34.846005 -118.327033 311 10504ft 161kts
25-Nov-21 15:30 34.877583 -118.365908 311 10498ft 161kts
25-Nov-21 15:31 34.908992 -118.404601 311 10492ft 160kts
25-Nov-21 15:32 34.940263 -118.443180 311 10498ft 160kts
25-Nov-21 15:33 34.971617 -118.481914 311 10513ft 161kts
25-Nov-21 15:34 35.003228 -118.520980 312 10527ft 162kts
25-Nov-21 15:35 35.035316 -118.560658 312 10485ft 163kts
25-Nov-21 15:36 35.066281 -118.599073 311 10527ft 161kts
25-Nov-21 15:37 35.098075 -118.638497 311 9856ft 156kts
25-Nov-21 15:38 35.127731 -118.675329 311 9049ft 150kts
25-Nov-21 15:39 35.157035 -118.711743 311 8328ft 150kts
25-Nov-21 15:40 35.186161 -118.747956 310 7679ft 148kts
25-Nov-21 15:41 35.215054 -118.783893 310 6857ft 147kts
25-Nov-21 15:42 35.243732 -118.819636 310 6017ft 146kts
25-Nov-21 15:43 35.272159 -118.855045 309 5176ft 145kts
25-Nov-21 15:44 35.299671 -118.889203 308 4148ft 128kts
25-Nov-21 15:45 35.321535 -118.921273 311 2933ft 123kts
25-Nov-21 15:46 35.344206 -118.948456 309 2516ft 102kts
25-Nov-21 15:47 35.365106 -118.973687 311 2309ft 114kts
25-Nov-21 15:48 35.388211 -119.001339 311 1692ft 116kts
25-Nov-21 15:49 35.409998 -119.027644 310 1106ft 89kts
25-Nov-21 15:50 35.426975 -119.048013 317 659ft 87kts
25-Nov-21 15:51 35.440269 -119.062660 0 501ft 34kts
25-Nov-21 15:52 35.439617 -119.060835 135 500ft 28kts
25-Nov-21 15:53 35.437543 -119.056122 75 500ft 0kts
25-Nov-21 15:54 35.437543 -119.056122 75 500ft 0kts
25-Nov-21 15:55 35.437543 -119.056122 75 500ft 0kts
25-Nov-21 15:56 35.437543 -119.056122 75 500ft 0kts
25-Nov-21 15:57 35.437543 -119.056122 75 500ft 0kts
25-Nov-21 15:58 35.437543 -119.056122 75 500ft 0kts
25-Nov-21 15:59 35.437543 -119.056122 75 500ft 0kts
25-Nov-21 16:00 35.437543 -119.056122 75 500ft 0kts
25-Nov-21 16:01 35.437543 -119.056122 75 500ft 0kts
25-Nov-21 16:02 35.437543 -119.056122 75 500ft 0kts
25-Nov-21 16:03 35.437543 -119.056122 75 500ft 0kts
25-Nov-21 16:04 35.437543 -119.056122 75 500ft 0kts
25-Nov-21 16:05 35.437543 -119.056122 75 500ft 0kts

Navigation Log

Ident Type
Flight plan parsing failed, navigation log unavailable